sensor_id;sensor_type;location;lat;lon;timestamp;temperature;humidity
16441;DHT22;8330;-33.858;151.184;2023-03-11T00:02:02;25.90;99.90
16441;DHT22;8330;-33.858;151.184;2023-03-11T00:04:33;25.90;99.90
16441;DHT22;8330;-33.858;151.184;2023-03-11T00:07:09;26.00;99.90
16441;DHT22;8330;-33.858;151.184;2023-03-11T00:09:40;26.20;99.90
16441;DHT22;8330;-33.858;151.184;2023-03-11T00:12:14;26.20;99.90
16441;DHT22;8330;-33.858;151.184;2023-03-11T00:14:45;26.30;99.90
16441;DHT22;8330;-33.858;151.184;2023-03-11T00:17:18;26.40;99.90
16441;DHT22;8330;-33.858;151.184;2023-03-11T00:19:49;26.50;99.90
16441;DHT22;8330;-33.858;151.184;2023-03-11T00:22:20;26.60;99.90
16441;DHT22;8330;-33.858;151.184;2023-03-11T00:24:53;26.70;99.90
16441;DHT22;8330;-33.858;151.184;2023-03-11T00:27:24;26.70;99.90
16441;DHT22;8330;-33.858;151.184;2023-03-11T00:29:55;26.80;99.90
16441;DHT22;8330;-33.858;151.184;2023-03-11T00:32:28;27.00;99.90
16441;DHT22;8330;-33.858;151.184;2023-03-11T00:34:59;27.00;99.90
16441;DHT22;8330;-33.858;151.184;2023-03-11T00:37:30;27.10;99.90
16441;DHT22;8330;-33.858;151.184;2023-03-11T00:40:01;27.20;99.90
16441;DHT22;8330;-33.858;151.184;2023-03-11T00:42:35;27.20;99.90
16441;DHT22;8330;-33.858;151.184;2023-03-11T00:45:07;27.40;99.90
16441;DHT22;8330;-33.858;151.184;2023-03-11T00:47:40;27.50;99.90
16441;DHT22;8330;-33.858;151.184;2023-03-11T00:50:14;27.50;99.90
16441;DHT22;8330;-33.858;151.184;2023-03-11T00:52:47;27.60;99.90
16441;DHT22;8330;-33.858;151.184;2023-03-11T00:55:20;27.60;99.90
16441;DHT22;8330;-33.858;151.184;2023-03-11T00:57:54;27.70;99.90
16441;DHT22;8330;-33.858;151.184;2023-03-11T01:00:27;27.80;99.90
16441;DHT22;8330;-33.858;151.184;2023-03-11T01:03:01;27.90;99.90
16441;DHT22;8330;-33.858;151.184;2023-03-11T01:05:33;28.10;99.90
16441;DHT22;8330;-33.858;151.184;2023-03-11T01:08:04;28.10;99.90
16441;DHT22;8330;-33.858;151.184;2023-03-11T01:10:35;28.20;99.90
16441;DHT22;8330;-33.858;151.184;2023-03-11T01:13:06;28.20;99.90
16441;DHT22;8330;-33.858;151.184;2023-03-11T01:15:38;28.40;99.90
16441;DHT22;8330;-33.858;151.184;2023-03-11T01:18:11;28.40;99.90
16441;DHT22;8330;-33.858;151.184;2023-03-11T01:20:43;28.50;99.90
16441;DHT22;8330;-33.858;151.184;2023-03-11T01:23:17;28.60;99.90
16441;DHT22;8330;-33.858;151.184;2023-03-11T01:25:49;28.60;99.90
16441;DHT22;8330;-33.858;151.184;2023-03-11T01:28:20;28.70;99.90
16441;DHT22;8330;-33.858;151.184;2023-03-11T01:30:51;28.80;99.90
16441;DHT22;8330;-33.858;151.184;2023-03-11T01:33:24;28.80;99.90
16441;DHT22;8330;-33.858;151.184;2023-03-11T01:35:56;28.90;99.90
16441;DHT22;8330;-33.858;151.184;2023-03-11T01:38:27;29.00;99.90
16441;DHT22;8330;-33.858;151.184;2023-03-11T01:40:58;29.00;99.90
16441;DHT22;8330;-33.858;151.184;2023-03-11T01:43:48;29.10;99.90
16441;DHT22;8330;-33.858;151.184;2023-03-11T01:46:20;29.10;99.90
16441;DHT22;8330;-33.858;151.184;2023-03-11T01:48:54;29.10;99.90
16441;DHT22;8330;-33.858;151.184;2023-03-11T01:51:29;29.20;99.90
16441;DHT22;8330;-33.858;151.184;2023-03-11T01:54:07;29.20;99.90
16441;DHT22;8330;-33.858;151.184;2023-03-11T01:56:40;29.10;99.90
16441;DHT22;8330;-33.858;151.184;2023-03-11T01:59:15;29.10;99.90
16441;DHT22;8330;-33.858;151.184;2023-03-11T02:01:51;29.20;99.90
16441;DHT22;8330;-33.858;151.184;2023-03-11T02:04:26;29.20;99.90
16441;DHT22;8330;-33.858;151.184;2023-03-11T02:06:58;29.30;99.90
16441;DHT22;8330;-33.858;151.184;2023-03-11T02:09:30;29.40;99.90
16441;DHT22;8330;-33.858;151.184;2023-03-11T02:12:01;29.40;99.90
16441;DHT22;8330;-33.858;151.184;2023-03-11T02:14:32;29.40;99.90
16441;DHT22;8330;-33.858;151.184;2023-03-11T02:17:04;29.40;99.90
16441;DHT22;8330;-33.858;151.184;2023-03-11T02:19:45;29.40;99.90
16441;DHT22;8330;-33.858;151.184;2023-03-11T02:22:20;29.40;99.90
16441;DHT22;8330;-33.858;151.184;2023-03-11T02:24:56;29.40;99.90
16441;DHT22;8330;-33.858;151.184;2023-03-11T02:27:32;29.30;99.90
16441;DHT22;8330;-33.858;151.184;2023-03-11T02:30:04;29.30;99.90
16441;DHT22;8330;-33.858;151.184;2023-03-11T02:32:36;29.30;99.90
16441;DHT22;8330;-33.858;151.184;2023-03-11T02:35:08;29.30;99.90
16441;DHT22;8330;-33.858;151.184;2023-03-11T02:37:44;29.30;99.90
16441;DHT22;8330;-33.858;151.184;2023-03-11T02:40:36;29.30;99.90
16441;DHT22;8330;-33.858;151.184;2023-03-11T02:43:12;29.30;99.90
16441;DHT22;8330;-33.858;151.184;2023-03-11T02:45:45;29.20;99.90
16441;DHT22;8330;-33.858;151.184;2023-03-11T02:48:19;29.20;99.90
16441;DHT22;8330;-33.858;151.184;2023-03-11T02:50:51;29.20;99.90
16441;DHT22;8330;-33.858;151.184;2023-03-11T02:53:23;29.20;99.90
16441;DHT22;8330;-33.858;151.184;2023-03-11T02:55:55;29.20;99.90
16441;DHT22;8330;-33.858;151.184;2023-03-11T02:58:28;29.30;99.90
16441;DHT22;8330;-33.858;151.184;2023-03-11T03:00:59;29.40;99.90
16441;DHT22;8330;-33.858;151.184;2023-03-11T03:03:30;29.50;99.90
16441;DHT22;8330;-33.858;151.184;2023-03-11T03:06:01;29.50;99.90
16441;DHT22;8330;-33.858;151.184;2023-03-11T03:08:32;29.60;99.90
16441;DHT22;8330;-33.858;151.184;2023-03-11T03:11:03;29.70;99.90
16441;DHT22;8330;-33.858;151.184;2023-03-11T03:13:37;29.70;99.90
16441;DHT22;8330;-33.858;151.184;2023-03-11T03:16:08;29.80;99.90
16441;DHT22;8330;-33.858;151.184;2023-03-11T03:18:39;29.90;99.90
16441;DHT22;8330;-33.858;151.184;2023-03-11T03:21:10;30.00;99.90
16441;DHT22;8330;-33.858;151.184;2023-03-11T03:23:41;30.00;99.90
16441;DHT22;8330;-33.858;151.184;2023-03-11T03:26:13;30.10;99.90
16441;DHT22;8330;-33.858;151.184;2023-03-11T03:28:46;30.10;99.90
16441;DHT22;8330;-33.858;151.184;2023-03-11T03:31:17;30.20;99.90
16441;DHT22;8330;-33.858;151.184;2023-03-11T03:33:48;30.30;99.90
16441;DHT22;8330;-33.858;151.184;2023-03-11T03:36:19;30.40;99.90
16441;DHT22;8330;-33.858;151.184;2023-03-11T03:38:54;30.50;99.90
16441;DHT22;8330;-33.858;151.184;2023-03-11T03:41:25;30.50;99.90
16441;DHT22;8330;-33.858;151.184;2023-03-11T03:43:59;30.60;99.90
16441;DHT22;8330;-33.858;151.184;2023-03-11T03:46:30;30.50;99.90
16441;DHT22;8330;-33.858;151.184;2023-03-11T03:49:04;30.60;99.90
16441;DHT22;8330;-33.858;151.184;2023-03-11T03:51:35;30.50;99.90
16441;DHT22;8330;-33.858;151.184;2023-03-11T03:54:06;30.40;99.90
16441;DHT22;8330;-33.858;151.184;2023-03-11T03:56:37;30.40;99.90
16441;DHT22;8330;-33.858;151.184;2023-03-11T03:59:10;30.30;99.90
16441;DHT22;8330;-33.858;151.184;2023-03-11T04:01:41;30.10;99.90
16441;DHT22;8330;-33.858;151.184;2023-03-11T04:04:12;30.00;99.90
16441;DHT22;8330;-33.858;151.184;2023-03-11T04:06:43;30.00;99.90
16441;DHT22;8330;-33.858;151.184;2023-03-11T04:09:14;30.00;99.90
16441;DHT22;8330;-33.858;151.184;2023-03-11T04:11:45;30.00;99.90
16441;DHT22;8330;-33.858;151.184;2023-03-11T04:14:18;29.90;99.90
16441;DHT22;8330;-33.858;151.184;2023-03-11T04:16:49;30.00;99.90
16441;DHT22;8330;-33.858;151.184;2023-03-11T04:19:21;29.90;99.90
16441;DHT22;8330;-33.858;151.184;2023-03-11T04:21:52;29.90;99.90
16441;DHT22;8330;-33.858;151.184;2023-03-11T04:24:23;29.80;99.90
16441;DHT22;8330;-33.858;151.184;2023-03-11T04:26:54;29.70;99.90
16441;DHT22;8330;-33.858;151.184;2023-03-11T04:29:27;29.60;99.90
16441;DHT22;8330;-33.858;151.184;2023-03-11T04:31:58;29.50;99.90
16441;DHT22;8330;-33.858;151.184;2023-03-11T04:34:29;29.50;99.90
16441;DHT22;8330;-33.858;151.184;2023-03-11T04:37:00;29.20;99.90
16441;DHT22;8330;-33.858;151.184;2023-03-11T04:39:31;29.30;99.90
16441;DHT22;8330;-33.858;151.184;2023-03-11T04:42:02;29.30;99.90
16441;DHT22;8330;-33.858;151.184;2023-03-11T04:44:37;29.40;99.90
16441;DHT22;8330;-33.858;151.184;2023-03-11T04:47:08;29.40;99.90
16441;DHT22;8330;-33.858;151.184;2023-03-11T04:49:42;29.40;99.90
16441;DHT22;8330;-33.858;151.184;2023-03-11T04:52:13;29.50;99.90
16441;DHT22;8330;-33.858;151.184;2023-03-11T04:54:44;29.50;99.90
16441;DHT22;8330;-33.858;151.184;2023-03-11T04:57:15;29.50;99.90
16441;DHT22;8330;-33.858;151.184;2023-03-11T04:59:48;29.50;99.90
16441;DHT22;8330;-33.858;151.184;2023-03-11T05:02:20;29.60;99.90
16441;DHT22;8330;-33.858;151.184;2023-03-11T05:04:51;29.60;99.90
16441;DHT22;8330;-33.858;151.184;2023-03-11T05:07:23;29.70;99.90
16441;DHT22;8330;-33.858;151.184;2023-03-11T05:09:54;29.70;99.90
16441;DHT22;8330;-33.858;151.184;2023-03-11T05:12:25;29.60;99.90
16441;DHT22;8330;-33.858;151.184;2023-03-11T05:14:58;29.70;99.90
16441;DHT22;8330;-33.858;151.184;2023-03-11T05:17:29;29.80;99.90
16441;DHT22;8330;-33.858;151.184;2023-03-11T05:20:00;29.90;99.90
16441;DHT22;8330;-33.858;151.184;2023-03-11T05:22:33;29.80;99.90
16441;DHT22;8330;-33.858;151.184;2023-03-11T05:25:05;29.80;99.90
16441;DHT22;8330;-33.858;151.184;2023-03-11T05:27:36;29.80;99.90
16441;DHT22;8330;-33.858;151.184;2023-03-11T05:30:11;29.70;99.90
16441;DHT22;8330;-33.858;151.184;2023-03-11T05:32:44;29.90;99.90
16441;DHT22;8330;-33.858;151.184;2023-03-11T05:35:15;29.90;99.90
16441;DHT22;8330;-33.858;151.184;2023-03-11T05:37:47;29.80;99.90
16441;DHT22;8330;-33.858;151.184;2023-03-11T05:40:19;29.80;99.90
16441;DHT22;8330;-33.858;151.184;2023-03-11T05:42:50;29.90;99.90
16441;DHT22;8330;-33.858;151.184;2023-03-11T05:45:24;29.90;99.90
16441;DHT22;8330;-33.858;151.184;2023-03-11T05:47:55;29.90;99.90
16441;DHT22;8330;-33.858;151.184;2023-03-11T05:50:26;30.00;99.90
16441;DHT22;8330;-33.858;151.184;2023-03-11T05:52:57;30.00;99.90
16441;DHT22;8330;-33.858;151.184;2023-03-11T05:55:28;30.00;99.90
16441;DHT22;8330;-33.858;151.184;2023-03-11T05:57:59;30.10;99.90
16441;DHT22;8330;-33.858;151.184;2023-03-11T06:00:32;30.00;99.90
16441;DHT22;8330;-33.858;151.184;2023-03-11T06:03:03;30.10;99.90
16441;DHT22;8330;-33.858;151.184;2023-03-11T06:05:34;30.20;99.90
16441;DHT22;8330;-33.858;151.184;2023-03-11T06:08:06;30.20;99.90
16441;DHT22;8330;-33.858;151.184;2023-03-11T06:10:37;30.20;99.90
16441;DHT22;8330;-33.858;151.184;2023-03-11T06:13:08;30.10;99.90
16441;DHT22;8330;-33.858;151.184;2023-03-11T06:15:42;30.30;99.90
16441;DHT22;8330;-33.858;151.184;2023-03-11T06:18:13;30.60;99.90
16441;DHT22;8330;-33.858;151.184;2023-03-11T06:20:46;30.70;99.90
16441;DHT22;8330;-33.858;151.184;2023-03-11T06:23:17;30.70;99.90
16441;DHT22;8330;-33.858;151.184;2023-03-11T06:25:55;30.90;99.90
16441;DHT22;8330;-33.858;151.184;2023-03-11T06:28:27;30.90;99.90
16441;DHT22;8330;-33.858;151.184;2023-03-11T06:31:09;31.00;99.90
16441;DHT22;8330;-33.858;151.184;2023-03-11T06:33:41;31.10;99.90
16441;DHT22;8330;-33.858;151.184;2023-03-11T06:36:13;31.30;99.90
16441;DHT22;8330;-33.858;151.184;2023-03-11T06:38:45;31.60;99.90
16441;DHT22;8330;-33.858;151.184;2023-03-11T06:41:17;31.80;99.90
16441;DHT22;8330;-33.858;151.184;2023-03-11T06:43:48;31.80;99.90
16441;DHT22;8330;-33.858;151.184;2023-03-11T06:46:21;31.90;99.90
16441;DHT22;8330;-33.858;151.184;2023-03-11T06:48:53;32.00;99.90
16441;DHT22;8330;-33.858;151.184;2023-03-11T06:51:24;32.00;99.90
16441;DHT22;8330;-33.858;151.184;2023-03-11T06:53:55;32.00;99.90
16441;DHT22;8330;-33.858;151.184;2023-03-11T06:56:26;32.00;99.90
16441;DHT22;8330;-33.858;151.184;2023-03-11T06:58:57;32.20;99.90
16441;DHT22;8330;-33.858;151.184;2023-03-11T07:01:31;32.20;99.90
16441;DHT22;8330;-33.858;151.184;2023-03-11T07:04:02;32.40;99.90
16441;DHT22;8330;-33.858;151.184;2023-03-11T07:06:33;32.50;99.90
16441;DHT22;8330;-33.858;151.184;2023-03-11T07:09:05;32.70;99.90
16441;DHT22;8330;-33.858;151.184;2023-03-11T07:11:36;32.70;99.90
16441;DHT22;8330;-33.858;151.184;2023-03-11T07:14:07;32.50;99.90
16441;DHT22;8330;-33.858;151.184;2023-03-11T07:16:40;31.80;99.90
16441;DHT22;8330;-33.858;151.184;2023-03-11T07:19:12;31.20;99.90
16441;DHT22;8330;-33.858;151.184;2023-03-11T07:21:44;30.80;99.90
16441;DHT22;8330;-33.858;151.184;2023-03-11T07:24:15;30.50;99.90
16441;DHT22;8330;-33.858;151.184;2023-03-11T07:26:46;30.10;99.90
16441;DHT22;8330;-33.858;151.184;2023-03-11T07:29:19;29.80;99.90
16441;DHT22;8330;-33.858;151.184;2023-03-11T07:31:52;29.50;99.90
16441;DHT22;8330;-33.858;151.184;2023-03-11T07:34:23;29.30;99.90
16441;DHT22;8330;-33.858;151.184;2023-03-11T07:36:54;29.20;99.90
16441;DHT22;8330;-33.858;151.184;2023-03-11T07:39:26;28.90;99.90
16441;DHT22;8330;-33.858;151.184;2023-03-11T07:41:57;28.80;99.90
16441;DHT22;8330;-33.858;151.184;2023-03-11T07:44:28;28.50;99.90
16441;DHT22;8330;-33.858;151.184;2023-03-11T07:47:02;28.50;99.90
16441;DHT22;8330;-33.858;151.184;2023-03-11T07:49:33;28.40;99.90
16441;DHT22;8330;-33.858;151.184;2023-03-11T07:52:05;28.30;99.90
16441;DHT22;8330;-33.858;151.184;2023-03-11T07:54:36;28.30;99.90
16441;DHT22;8330;-33.858;151.184;2023-03-11T07:57:07;28.20;99.90
16441;DHT22;8330;-33.858;151.184;2023-03-11T07:59:43;28.10;99.90
16441;DHT22;8330;-33.858;151.184;2023-03-11T08:02:17;28.10;99.90
16441;DHT22;8330;-33.858;151.184;2023-03-11T08:04:49;28.00;99.90
16441;DHT22;8330;-33.858;151.184;2023-03-11T08:07:20;27.90;99.90
16441;DHT22;8330;-33.858;151.184;2023-03-11T08:09:51;27.90;99.90
16441;DHT22;8330;-33.858;151.184;2023-03-11T08:12:22;27.90;99.90
16441;DHT22;8330;-33.858;151.184;2023-03-11T08:14:53;27.80;99.90
16441;DHT22;8330;-33.858;151.184;2023-03-11T08:17:26;27.80;99.90
16441;DHT22;8330;-33.858;151.184;2023-03-11T08:19:57;27.70;99.90
16441;DHT22;8330;-33.858;151.184;2023-03-11T08:22:28;27.70;99.90
16441;DHT22;8330;-33.858;151.184;2023-03-11T08:25:00;27.70;99.90
16441;DHT22;8330;-33.858;151.184;2023-03-11T08:27:31;27.60;99.90
16441;DHT22;8330;-33.858;151.184;2023-03-11T08:30:02;27.60;99.90
16441;DHT22;8330;-33.858;151.184;2023-03-11T08:32:35;27.60;99.90
16441;DHT22;8330;-33.858;151.184;2023-03-11T08:35:08;27.50;99.90
16441;DHT22;8330;-33.858;151.184;2023-03-11T08:37:39;27.50;99.90
16441;DHT22;8330;-33.858;151.184;2023-03-11T08:40:11;27.50;99.90
16441;DHT22;8330;-33.858;151.184;2023-03-11T08:42:43;27.50;99.90
16441;DHT22;8330;-33.858;151.184;2023-03-11T08:45:14;27.50;99.90
16441;DHT22;8330;-33.858;151.184;2023-03-11T08:47:47;27.40;99.90
16441;DHT22;8330;-33.858;151.184;2023-03-11T08:50:20;27.40;99.90
16441;DHT22;8330;-33.858;151.184;2023-03-11T08:52:51;27.40;99.90
16441;DHT22;8330;-33.858;151.184;2023-03-11T08:55:23;27.40;99.90
16441;DHT22;8330;-33.858;151.184;2023-03-11T08:57:55;27.40;99.90
16441;DHT22;8330;-33.858;151.184;2023-03-11T09:00:26;27.40;99.90
16441;DHT22;8330;-33.858;151.184;2023-03-11T09:02:59;27.40;99.90
16441;DHT22;8330;-33.858;151.184;2023-03-11T09:05:30;27.40;99.90
16441;DHT22;8330;-33.858;151.184;2023-03-11T09:08:02;27.40;99.90
16441;DHT22;8330;-33.858;151.184;2023-03-11T09:10:33;27.40;99.90
16441;DHT22;8330;-33.858;151.184;2023-03-11T09:13:05;27.40;99.90
16441;DHT22;8330;-33.858;151.184;2023-03-11T09:15:36;27.30;99.90
16441;DHT22;8330;-33.858;151.184;2023-03-11T09:18:12;27.30;99.90
16441;DHT22;8330;-33.858;151.184;2023-03-11T09:20:43;27.20;99.90
16441;DHT22;8330;-33.858;151.184;2023-03-11T09:23:15;27.20;99.90
16441;DHT22;8330;-33.858;151.184;2023-03-11T09:25:47;27.20;99.90
16441;DHT22;8330;-33.858;151.184;2023-03-11T09:28:18;27.20;99.90
16441;DHT22;8330;-33.858;151.184;2023-03-11T09:30:50;27.20;99.90
16441;DHT22;8330;-33.858;151.184;2023-03-11T09:33:23;27.10;99.90
16441;DHT22;8330;-33.858;151.184;2023-03-11T09:35:55;27.10;99.90
16441;DHT22;8330;-33.858;151.184;2023-03-11T09:38:26;27.10;99.90
16441;DHT22;8330;-33.858;151.184;2023-03-11T09:41:04;27.10;99.90
16441;DHT22;8330;-33.858;151.184;2023-03-11T09:43:48;27.10;99.90
16441;DHT22;8330;-33.858;151.184;2023-03-11T09:46:42;27.10;99.90
16441;DHT22;8330;-33.858;151.184;2023-03-11T09:49:22;27.00;99.90
16441;DHT22;8330;-33.858;151.184;2023-03-11T09:52:02;27.00;99.90
16441;DHT22;8330;-33.858;151.184;2023-03-11T09:54:40;27.00;99.90
16441;DHT22;8330;-33.858;151.184;2023-03-11T09:57:15;27.00;99.90
16441;DHT22;8330;-33.858;151.184;2023-03-11T09:59:48;27.00;99.90
16441;DHT22;8330;-33.858;151.184;2023-03-11T10:02:21;27.00;99.90
16441;DHT22;8330;-33.858;151.184;2023-03-11T10:04:58;26.90;99.90
16441;DHT22;8330;-33.858;151.184;2023-03-11T10:07:35;26.90;99.90
16441;DHT22;8330;-33.858;151.184;2023-03-11T10:10:11;26.90;99.90
16441;DHT22;8330;-33.858;151.184;2023-03-11T10:12:50;26.90;99.90
16441;DHT22;8330;-33.858;151.184;2023-03-11T10:15:34;26.90;99.90
16441;DHT22;8330;-33.858;151.184;2023-03-11T10:18:26;27.00;99.90
16441;DHT22;8330;-33.858;151.184;2023-03-11T10:21:13;26.90;99.90
16441;DHT22;8330;-33.858;151.184;2023-03-11T10:24:05;26.90;99.90
16441;DHT22;8330;-33.858;151.184;2023-03-11T10:26:42;26.90;99.90
16441;DHT22;8330;-33.858;151.184;2023-03-11T10:29:20;26.90;99.90
16441;DHT22;8330;-33.858;151.184;2023-03-11T10:31:59;26.90;99.90
16441;DHT22;8330;-33.858;151.184;2023-03-11T10:34:35;26.80;99.90
16441;DHT22;8330;-33.858;151.184;2023-03-11T10:37:16;26.70;99.90
16441;DHT22;8330;-33.858;151.184;2023-03-11T10:40:04;26.70;99.90
16441;DHT22;8330;-33.858;151.184;2023-03-11T10:42:44;26.70;99.90
16441;DHT22;8330;-33.858;151.184;2023-03-11T10:45:17;26.70;99.90
16441;DHT22;8330;-33.858;151.184;2023-03-11T10:47:50;26.70;99.90
16441;DHT22;8330;-33.858;151.184;2023-03-11T10:50:22;26.70;99.90
16441;DHT22;8330;-33.858;151.184;2023-03-11T10:53:12;26.80;99.90
16441;DHT22;8330;-33.858;151.184;2023-03-11T10:55:47;26.70;99.90
16441;DHT22;8330;-33.858;151.184;2023-03-11T10:58:22;26.70;99.90
16441;DHT22;8330;-33.858;151.184;2023-03-11T11:01:14;26.70;99.90
16441;DHT22;8330;-33.858;151.184;2023-03-11T11:03:55;26.60;99.90
16441;DHT22;8330;-33.858;151.184;2023-03-11T11:06:29;26.60;99.90
16441;DHT22;8330;-33.858;151.184;2023-03-11T11:09:14;26.60;99.90
16441;DHT22;8330;-33.858;151.184;2023-03-11T11:12:02;26.60;99.90
16441;DHT22;8330;-33.858;151.184;2023-03-11T11:14:45;26.60;99.90
16441;DHT22;8330;-33.858;151.184;2023-03-11T11:17:35;26.60;99.90
16441;DHT22;8330;-33.858;151.184;2023-03-11T11:20:16;26.60;99.90
16441;DHT22;8330;-33.858;151.184;2023-03-11T11:22:53;26.60;99.90
16441;DHT22;8330;-33.858;151.184;2023-03-11T11:25:33;26.50;99.90
16441;DHT22;8330;-33.858;151.184;2023-03-11T11:28:17;26.50;99.90
16441;DHT22;8330;-33.858;151.184;2023-03-11T11:30:54;26.50;99.90
16441;DHT22;8330;-33.858;151.184;2023-03-11T11:33:31;26.60;99.90
16441;DHT22;8330;-33.858;151.184;2023-03-11T11:36:13;26.60;99.90
16441;DHT22;8330;-33.858;151.184;2023-03-11T11:38:54;26.60;99.90
16441;DHT22;8330;-33.858;151.184;2023-03-11T11:41:37;26.50;99.90
16441;DHT22;8330;-33.858;151.184;2023-03-11T11:44:16;26.50;99.90
16441;DHT22;8330;-33.858;151.184;2023-03-11T11:46:53;26.50;99.90
16441;DHT22;8330;-33.858;151.184;2023-03-11T11:49:32;26.40;99.90
16441;DHT22;8330;-33.858;151.184;2023-03-11T11:52:08;26.50;99.90
16441;DHT22;8330;-33.858;151.184;2023-03-11T11:54:44;26.50;99.90
16441;DHT22;8330;-33.858;151.184;2023-03-11T11:57:30;26.40;99.90
16441;DHT22;8330;-33.858;151.184;2023-03-11T12:00:22;26.40;99.90
16441;DHT22;8330;-33.858;151.184;2023-03-11T12:03:07;26.30;99.90
16441;DHT22;8330;-33.858;151.184;2023-03-11T12:05:53;26.30;99.90
16441;DHT22;8330;-33.858;151.184;2023-03-11T12:08:37;26.40;99.90
16441;DHT22;8330;-33.858;151.184;2023-03-11T12:11:19;26.40;99.90
16441;DHT22;8330;-33.858;151.184;2023-03-11T12:14:16;26.40;99.90
16441;DHT22;8330;-33.858;151.184;2023-03-11T12:16:56;26.40;99.90
16441;DHT22;8330;-33.858;151.184;2023-03-11T12:25:40;26.30;99.90
16441;DHT22;8330;-33.858;151.184;2023-03-11T12:28:20;26.30;99.90
16441;DHT22;8330;-33.858;151.184;2023-03-11T12:30:57;26.30;99.90
16441;DHT22;8330;-33.858;151.184;2023-03-11T12:33:34;26.40;99.90
16441;DHT22;8330;-33.858;151.184;2023-03-11T12:36:06;26.40;99.90
16441;DHT22;8330;-33.858;151.184;2023-03-11T12:38:48;26.40;99.90
16441;DHT22;8330;-33.858;151.184;2023-03-11T12:41:32;26.40;99.90
16441;DHT22;8330;-33.858;151.184;2023-03-11T12:44:21;26.40;99.90
16441;DHT22;8330;-33.858;151.184;2023-03-11T12:47:21;26.40;99.90
16441;DHT22;8330;-33.858;151.184;2023-03-11T12:49:53;26.50;99.90
16441;DHT22;8330;-33.858;151.184;2023-03-11T12:52:29;26.40;99.90
16441;DHT22;8330;-33.858;151.184;2023-03-11T12:55:29;26.30;99.90
16441;DHT22;8330;-33.858;151.184;2023-03-11T12:58:38;26.20;99.90
16441;DHT22;8330;-33.858;151.184;2023-03-11T13:01:32;26.20;99.90
16441;DHT22;8330;-33.858;151.184;2023-03-11T13:04:24;26.10;99.90
16441;DHT22;8330;-33.858;151.184;2023-03-11T13:10:10;26.00;99.90
16441;DHT22;8330;-33.858;151.184;2023-03-11T13:12:43;26.00;99.90
16441;DHT22;8330;-33.858;151.184;2023-03-11T13:15:36;26.00;99.90
16441;DHT22;8330;-33.858;151.184;2023-03-11T13:18:21;26.00;99.90
16441;DHT22;8330;-33.858;151.184;2023-03-11T13:20:57;25.90;99.90
16441;DHT22;8330;-33.858;151.184;2023-03-11T13:23:31;25.90;99.90
16441;DHT22;8330;-33.858;151.184;2023-03-11T13:26:38;25.90;99.90
16441;DHT22;8330;-33.858;151.184;2023-03-11T13:29:44;25.90;99.90
16441;DHT22;8330;-33.858;151.184;2023-03-11T13:32:29;25.90;99.90
16441;DHT22;8330;-33.858;151.184;2023-03-11T13:35:18;25.90;99.90
16441;DHT22;8330;-33.858;151.184;2023-03-11T13:38:15;25.80;99.90
16441;DHT22;8330;-33.858;151.184;2023-03-11T13:40:48;25.80;99.90
16441;DHT22;8330;-33.858;151.184;2023-03-11T13:43:21;25.80;99.90
16441;DHT22;8330;-33.858;151.184;2023-03-11T13:45:55;25.80;99.90
16441;DHT22;8330;-33.858;151.184;2023-03-11T13:48:29;25.80;99.90
16441;DHT22;8330;-33.858;151.184;2023-03-11T13:51:05;25.80;99.90
16441;DHT22;8330;-33.858;151.184;2023-03-11T13:53:44;25.70;99.90
16441;DHT22;8330;-33.858;151.184;2023-03-11T13:56:21;25.70;99.90
16441;DHT22;8330;-33.858;151.184;2023-03-11T13:58:53;25.70;99.90
16441;DHT22;8330;-33.858;151.184;2023-03-11T14:01:24;25.70;99.90
16441;DHT22;8330;-33.858;151.184;2023-03-11T14:03:55;25.70;99.90
16441;DHT22;8330;-33.858;151.184;2023-03-11T14:06:30;25.70;99.90
16441;DHT22;8330;-33.858;151.184;2023-03-11T14:09:03;25.70;99.90
16441;DHT22;8330;-33.858;151.184;2023-03-11T14:11:35;25.60;99.90
16441;DHT22;8330;-33.858;151.184;2023-03-11T14:17:06;25.70;99.90
16441;DHT22;8330;-33.858;151.184;2023-03-11T14:19:40;25.70;99.90
16441;DHT22;8330;-33.858;151.184;2023-03-11T14:22:13;25.60;99.90
16441;DHT22;8330;-33.858;151.184;2023-03-11T14:24:48;25.60;99.90
16441;DHT22;8330;-33.858;151.184;2023-03-11T14:27:19;25.60;99.90
16441;DHT22;8330;-33.858;151.184;2023-03-11T14:29:50;25.50;99.90
16441;DHT22;8330;-33.858;151.184;2023-03-11T14:32:27;25.50;99.90
16441;DHT22;8330;-33.858;151.184;2023-03-11T14:35:15;25.40;99.90
16441;DHT22;8330;-33.858;151.184;2023-03-11T14:37:48;25.40;99.90
16441;DHT22;8330;-33.858;151.184;2023-03-11T14:40:31;25.40;99.90
16441;DHT22;8330;-33.858;151.184;2023-03-11T14:43:05;25.30;99.90
16441;DHT22;8330;-33.858;151.184;2023-03-11T14:45:38;25.30;99.90
16441;DHT22;8330;-33.858;151.184;2023-03-11T14:48:12;25.30;99.90
16441;DHT22;8330;-33.858;151.184;2023-03-11T14:50:45;25.30;99.90
16441;DHT22;8330;-33.858;151.184;2023-03-11T14:53:22;25.30;99.90
16441;DHT22;8330;-33.858;151.184;2023-03-11T14:55:58;25.20;99.90
16441;DHT22;8330;-33.858;151.184;2023-03-11T14:58:33;25.20;99.90
16441;DHT22;8330;-33.858;151.184;2023-03-11T15:01:09;25.20;99.90
16441;DHT22;8330;-33.858;151.184;2023-03-11T15:03:45;25.20;99.90
16441;DHT22;8330;-33.858;151.184;2023-03-11T15:06:18;25.20;99.90
16441;DHT22;8330;-33.858;151.184;2023-03-11T15:08:51;25.20;99.90
16441;DHT22;8330;-33.858;151.184;2023-03-11T15:11:27;25.10;99.90
16441;DHT22;8330;-33.858;151.184;2023-03-11T15:14:15;25.10;99.90
16441;DHT22;8330;-33.858;151.184;2023-03-11T15:16:47;25.10;99.90
16441;DHT22;8330;-33.858;151.184;2023-03-11T15:19:28;25.10;99.90
16441;DHT22;8330;-33.858;151.184;2023-03-11T15:22:19;25.10;99.90
16441;DHT22;8330;-33.858;151.184;2023-03-11T15:24:52;25.10;99.90
16441;DHT22;8330;-33.858;151.184;2023-03-11T15:27:29;25.10;99.90
16441;DHT22;8330;-33.858;151.184;2023-03-11T15:30:02;25.10;99.90
16441;DHT22;8330;-33.858;151.184;2023-03-11T15:32:39;25.00;99.90
16441;DHT22;8330;-33.858;151.184;2023-03-11T15:35:15;25.10;99.90
16441;DHT22;8330;-33.858;151.184;2023-03-11T15:37:47;25.00;99.90
16441;DHT22;8330;-33.858;151.184;2023-03-11T15:40:21;25.00;99.90
16441;DHT22;8330;-33.858;151.184;2023-03-11T15:43:18;25.00;99.90
16441;DHT22;8330;-33.858;151.184;2023-03-11T15:45:51;25.00;99.90
16441;DHT22;8330;-33.858;151.184;2023-03-11T15:48:23;25.00;99.90
16441;DHT22;8330;-33.858;151.184;2023-03-11T15:50:56;24.90;99.90
16441;DHT22;8330;-33.858;151.184;2023-03-11T15:53:28;25.00;99.90
16441;DHT22;8330;-33.858;151.184;2023-03-11T15:56:02;24.90;99.90
16441;DHT22;8330;-33.858;151.184;2023-03-11T15:58:36;24.90;99.90
16441;DHT22;8330;-33.858;151.184;2023-03-11T16:01:10;24.80;99.90
16441;DHT22;8330;-33.858;151.184;2023-03-11T16:03:41;24.80;99.90